createdAt,value
2018-02-01T00:01:30.215Z,98761
2018-02-01T00:04:00.132Z,98757
2018-02-01T00:06:30.199Z,98758
2018-02-01T00:09:00.082Z,98761
2018-02-01T00:11:30.277Z,98766
2018-02-01T00:14:00.164Z,98687
2018-02-01T00:16:30.624Z,98768
2018-02-01T00:19:00.474Z,98768
2018-02-01T00:21:30.402Z,98770
2018-02-01T00:24:00.230Z,98768
2018-02-01T00:26:30.163Z,98765
2018-02-01T00:29:00.079Z,98774
2018-02-01T00:31:30.194Z,98781
2018-02-01T00:34:01.131Z,98779
2018-02-01T00:36:31.037Z,98779
2018-02-01T00:39:00.909Z,98778
2018-02-01T00:41:31.588Z,98774
2018-02-01T00:44:01.464Z,98768
2018-02-01T00:46:31.340Z,98771
2018-02-01T00:49:01.556Z,98776
2018-02-01T00:51:31.469Z,98744
2018-02-01T00:54:01.322Z,98760
2018-02-01T00:56:31.294Z,98762
2018-02-01T00:59:01.220Z,98748
2018-02-01T01:01:31.130Z,98745
2018-02-01T01:04:01.759Z,98746
2018-02-01T01:06:33.300Z,98740
2018-02-01T01:09:03.329Z,98706
2018-02-01T01:11:34.769Z,98744
2018-02-01T01:14:04.657Z,98754
2018-02-01T01:16:35.039Z,98751
2018-02-01T01:19:04.931Z,98756
2018-02-01T01:21:34.981Z,98763
2018-02-01T01:24:04.977Z,98762
2018-02-01T01:26:34.864Z,98759
2018-02-01T01:29:04.719Z,98763
2018-02-01T01:31:34.629Z,98758
2018-02-01T01:34:04.542Z,98774
2018-02-01T01:36:34.432Z,98761
2018-02-01T01:39:04.703Z,98761
2018-02-01T01:41:34.696Z,98751
2018-02-01T01:44:04.648Z,98752
2018-02-01T01:46:34.680Z,98750
2018-02-01T01:49:04.623Z,98740
2018-02-01T01:51:34.658Z,98740
2018-02-01T01:54:04.655Z,98754
2018-02-01T01:56:34.547Z,98749
2018-02-01T01:59:04.480Z,98748
2018-02-01T02:01:34.402Z,98745
2018-02-01T02:04:04.370Z,98748
2018-02-01T02:06:37.132Z,98743
2018-02-01T02:09:07.067Z,98748
2018-02-01T02:11:36.958Z,98738
2018-02-01T02:14:07.022Z,98755
2018-02-01T02:16:36.916Z,98747
2018-02-01T02:19:06.889Z,98742
2018-02-01T02:21:37.381Z,98741
2018-02-01T02:24:07.336Z,98742
2018-02-01T02:26:37.267Z,98737
2018-02-01T02:29:07.342Z,98733
2018-02-01T02:31:37.381Z,98728
2018-02-01T02:34:07.229Z,98719
2018-02-01T02:36:37.165Z,98717
2018-02-01T02:39:07.878Z,98723
2018-02-01T02:41:37.719Z,98719
2018-02-01T02:44:07.571Z,98713
2018-02-01T02:46:38.447Z,98712
2018-02-01T02:49:08.301Z,98716
2018-02-01T02:51:38.244Z,98716
2018-02-01T02:54:08.090Z,98713
2018-02-01T02:56:38.018Z,98720
2018-02-01T02:59:08.732Z,98637
2018-02-01T03:01:38.658Z,98713
2018-02-01T03:04:08.520Z,98713
2018-02-01T03:06:38.401Z,98722
2018-02-01T03:09:08.493Z,98714
2018-02-01T03:11:38.418Z,98726
2018-02-01T03:14:08.273Z,98730
2018-02-01T03:16:38.808Z,98717
2018-02-01T03:19:08.679Z,98727
2018-02-01T03:21:38.545Z,98300
2018-02-01T03:24:08.894Z,98721
2018-02-01T03:26:38.950Z,98714
2018-02-01T03:29:09.244Z,98713
2018-02-01T03:31:39.252Z,98718
2018-02-01T03:34:09.112Z,98729
2018-02-01T03:36:39.033Z,98727
2018-02-01T03:39:08.971Z,98724
2018-02-01T03:41:38.940Z,98718
2018-02-01T03:44:08.904Z,98719
2018-02-01T03:46:38.787Z,98710
2018-02-01T03:49:08.693Z,98713
2018-02-01T03:51:38.657Z,98715
2018-02-01T03:54:08.503Z,98727
2018-02-01T03:56:38.616Z,98716
2018-02-01T03:59:08.568Z,98723
2018-02-01T04:01:38.540Z,98736
2018-02-01T04:04:08.525Z,98517
2018-02-01T04:06:38.664Z,98637
2018-02-01T04:09:08.627Z,98735
2018-02-01T04:11:38.533Z,98722
2018-02-01T04:14:08.417Z,98735
2018-02-01T04:16:38.309Z,98728
2018-02-01T04:19:08.319Z,98726
2018-02-01T04:21:38.252Z,98731
2018-02-01T04:24:08.173Z,98722
2018-02-01T04:26:38.054Z,98731
2018-02-01T04:29:07.935Z,98736
2018-02-01T04:31:37.869Z,98743
2018-02-01T04:34:07.739Z,98740
2018-02-01T04:36:37.605Z,98735
2018-02-01T04:39:07.477Z,98737
2018-02-01T04:41:38.319Z,98737
2018-02-01T04:44:08.334Z,98741
2018-02-01T04:46:38.240Z,98743
2018-02-01T04:49:08.139Z,98717
2018-02-01T04:51:38.013Z,98737
2018-02-01T04:54:07.948Z,98737
2018-02-01T04:56:38.887Z,98636
2018-02-01T04:59:08.736Z,98731
2018-02-01T05:01:38.590Z,98730
2018-02-01T05:04:08.469Z,98740
2018-02-01T05:06:38.329Z,98737
2018-02-01T05:09:08.468Z,98746
2018-02-01T05:11:38.348Z,98744
2018-02-01T05:14:08.553Z,98738
2018-02-01T05:16:38.430Z,98739
2018-02-01T05:19:08.433Z,98614
2018-02-01T05:21:38.361Z,98742
2018-02-01T05:24:09.411Z,98736
2018-02-01T05:26:39.341Z,98737
2018-02-01T05:29:09.236Z,98736
2018-02-01T05:31:39.114Z,98727
2018-02-01T05:34:09.149Z,98738
2018-02-01T05:36:39.974Z,98743
2018-02-01T05:39:09.949Z,98755
2018-02-01T05:41:40.810Z,98638
2018-02-01T05:44:10.734Z,98758
2018-02-01T05:46:40.606Z,98751
2018-02-01T05:49:10.523Z,98749
2018-02-01T05:51:40.362Z,98756
2018-02-01T05:54:10.368Z,98752
2018-02-01T05:56:40.282Z,98752
2018-02-01T05:59:10.185Z,98754
2018-02-01T06:01:40.017Z,98745
2018-02-01T06:04:09.913Z,98753
2018-02-01T06:06:39.814Z,98753
2018-02-01T06:09:09.682Z,98752
2018-02-01T06:11:39.551Z,98752
2018-02-01T06:14:09.488Z,98746
2018-02-01T06:16:40.688Z,98764
2018-02-01T06:19:11.326Z,98760
2018-02-01T06:21:41.237Z,98760
2018-02-01T06:24:12.048Z,98753
2018-02-01T06:26:42.031Z,98757
2018-02-01T06:29:12.289Z,98765
2018-02-01T06:31:42.173Z,98766
2018-02-01T06:34:12.239Z,98751
2018-02-01T06:36:42.091Z,98729
2018-02-01T06:39:11.952Z,98753
2018-02-01T06:41:42.601Z,98750
2018-02-01T06:44:12.527Z,98657
2018-02-01T06:46:42.406Z,98754
2018-02-01T06:49:12.289Z,98753
2018-02-01T06:51:42.466Z,98751
2018-02-01T06:54:12.332Z,98751
2018-02-01T06:56:42.663Z,98752
2018-02-01T06:59:12.593Z,98750
2018-02-01T07:01:42.537Z,98751
2018-02-01T07:04:12.386Z,98743
2018-02-01T07:06:42.291Z,98749
2018-02-01T07:09:12.149Z,98762
2018-02-01T07:11:42.141Z,98765
2018-02-01T07:14:12.022Z,98754
2018-02-01T07:16:41.882Z,98769
2018-02-01T07:19:11.727Z,98763
2018-02-01T07:21:41.640Z,98771
2018-02-01T07:24:11.895Z,98763
2018-02-01T07:26:41.736Z,98773
2018-02-01T07:29:11.618Z,98777
2018-02-01T07:31:41.561Z,98743
2018-02-01T07:34:11.727Z,98701
2018-02-01T07:36:41.637Z,98773
2018-02-01T07:39:11.609Z,98765
2018-02-01T07:41:41.471Z,98788
2018-02-01T07:44:11.449Z,98779
2018-02-01T07:46:46.898Z,98794
2018-02-01T07:49:16.818Z,98777
2018-02-01T07:51:46.653Z,98777
2018-02-01T07:54:16.540Z,98780
2018-02-01T07:56:46.400Z,98787
2018-02-01T07:59:16.281Z,98782
2018-02-01T08:01:46.185Z,98786
2018-02-01T08:04:16.112Z,98788
2018-02-01T08:06:46.038Z,98783
2018-02-01T08:09:15.953Z,98792
2018-02-01T08:11:45.823Z,98779
2018-02-01T08:14:16.509Z,98783
2018-02-01T08:16:46.799Z,98785
2018-02-01T08:19:16.743Z,98784
2018-02-01T08:21:46.592Z,98777
2018-02-01T08:24:17.628Z,98786
2018-02-01T08:26:47.587Z,98787
2018-02-01T08:29:17.431Z,98778
2018-02-01T08:31:49.023Z,98777
2018-02-01T08:34:18.966Z,98781
2018-02-01T08:36:48.804Z,98785
2018-02-01T08:39:18.624Z,98781
2018-02-01T08:41:48.579Z,98777
2018-02-01T08:44:18.423Z,98781
2018-02-01T08:46:48.547Z,98778
2018-02-01T08:49:18.452Z,98774
2018-02-01T08:51:48.373Z,98775
2018-02-01T08:54:18.235Z,98784
2018-02-01T08:56:48.106Z,98778
2018-02-01T08:59:17.968Z,98612
2018-02-01T09:01:47.855Z,98794
2018-02-01T09:04:17.741Z,98785
2018-02-01T09:06:47.582Z,98783
2018-02-01T09:09:17.509Z,98803
2018-02-01T09:11:47.499Z,98787
2018-02-01T09:14:17.424Z,98800
2018-02-01T09:16:47.322Z,98810
2018-02-01T09:19:17.161Z,98805
2018-02-01T09:21:47.069Z,98813
2018-02-01T09:24:17.063Z,98804
2018-02-01T09:26:47.026Z,98796
2018-02-01T09:29:16.935Z,98811
2018-02-01T09:31:46.820Z,98812
2018-02-01T09:34:16.676Z,98806
2018-02-01T09:36:46.553Z,98816
2018-02-01T09:39:16.603Z,98816
2018-02-01T09:41:47.210Z,98824
2018-02-01T09:44:17.229Z,98823
2018-02-01T09:46:47.222Z,98823
2018-02-01T09:49:17.088Z,98825
2018-02-01T09:51:47.618Z,98804
2018-02-01T09:54:17.493Z,98830
2018-02-01T09:56:47.387Z,98826
2018-02-01T09:59:17.271Z,98826
2018-02-01T10:01:47.172Z,98815
2018-02-01T10:04:17.198Z,98827
2018-02-01T10:06:47.100Z,98830
2018-02-01T10:09:17.010Z,98834
2018-02-01T10:11:46.883Z,98827
2018-02-01T10:14:17.101Z,98830
2018-02-01T10:16:46.928Z,98831
2018-02-01T10:19:17.284Z,98830
2018-02-01T10:21:47.204Z,98844
2018-02-01T10:24:17.058Z,98841
2018-02-01T10:26:46.922Z,98838
2018-02-01T10:29:16.806Z,98839
2018-02-01T10:31:46.716Z,98840
2018-02-01T10:34:16.568Z,98848
2018-02-01T10:36:46.454Z,98845
2018-02-01T10:39:17.072Z,98841
2018-02-01T10:41:46.933Z,98840
2018-02-01T10:44:16.785Z,98833
2018-02-01T10:46:46.639Z,98848
2018-02-01T10:49:17.266Z,98846
2018-02-01T10:51:47.238Z,98829
2018-02-01T10:54:17.165Z,98828
2018-02-01T10:56:47.090Z,98840
2018-02-01T10:59:17.420Z,98831
2018-02-01T11:01:47.268Z,98842
2018-02-01T11:04:18.104Z,98838
2018-02-01T11:06:47.998Z,98837
2018-02-01T11:09:19.055Z,98850
2018-02-01T11:11:48.916Z,98848
2018-02-01T11:14:19.619Z,98861
2018-02-01T11:16:49.458Z,98852
2018-02-01T11:19:20.171Z,98684
2018-02-01T11:21:50.021Z,98851
2018-02-01T11:24:20.531Z,98846
2018-02-01T11:26:51.516Z,98852
2018-02-01T11:29:21.454Z,98833
2018-02-01T11:31:51.296Z,98842
2018-02-01T11:34:21.397Z,98433
2018-02-01T11:36:51.621Z,98828
2018-02-01T11:39:21.483Z,98831
2018-02-01T11:41:51.341Z,98826
2018-02-01T11:44:21.300Z,98825
2018-02-01T11:46:51.163Z,98834
2018-02-01T11:49:21.076Z,98832
2018-02-01T11:51:50.944Z,98833
2018-02-01T11:54:20.863Z,98834
2018-02-01T11:56:50.750Z,98828
2018-02-01T11:59:20.638Z,98843
2018-02-01T12:01:50.485Z,98843
2018-02-01T12:04:20.318Z,98844
2018-02-01T12:06:50.778Z,98850
2018-02-01T12:09:20.605Z,98836
2018-02-01T12:11:51.064Z,98844
2018-02-01T12:14:20.934Z,98837
2018-02-01T12:16:50.783Z,98840
2018-02-01T12:19:20.657Z,98830
2018-02-01T12:21:50.520Z,98830
2018-02-01T12:24:20.485Z,98837
2018-02-01T12:26:50.901Z,98834
2018-02-01T12:29:26.302Z,98830
2018-02-01T12:31:57.213Z,98835
2018-02-01T12:34:27.175Z,98841
2018-02-01T12:36:57.008Z,98837
2018-02-01T12:39:26.863Z,98833
2018-02-01T12:41:56.764Z,98827
2018-02-01T12:44:26.646Z,98826
2018-02-01T12:46:56.480Z,98817
2018-02-01T12:49:26.425Z,98829
2018-02-01T12:51:56.330Z,98830
2018-02-01T12:54:26.453Z,98828
2018-02-01T12:56:56.452Z,98828
2018-02-01T12:59:26.310Z,98826
2018-02-01T13:01:56.222Z,98822
2018-02-01T13:04:26.078Z,98821
2018-02-01T13:06:56.121Z,98828
2018-02-01T13:09:27.365Z,98826
2018-02-01T13:24:18.516Z,98837
2018-02-01T13:26:49.384Z,98828
2018-02-01T13:29:19.704Z,98841
2018-02-01T13:32:00.475Z,98836
2018-02-01T14:57:57.234Z,98851
2018-02-01T15:00:27.912Z,98835
2018-02-01T17:04:50.481Z,98871
2018-02-01T17:21:59.536Z,98873
2018-02-01T17:24:29.729Z,98880
2018-02-01T17:27:00.643Z,98871
2018-02-01T17:29:30.633Z,98859
2018-02-01T17:32:00.541Z,98875
2018-02-01T17:34:30.458Z,98878
2018-02-01T17:37:00.416Z,98873
2018-02-01T17:39:30.449Z,98881
2018-02-01T17:42:01.136Z,98881
2018-02-01T17:44:30.979Z,98885
2018-02-01T17:47:00.920Z,98881
2018-02-01T17:49:30.815Z,98891
2018-02-01T17:52:00.684Z,98886
2018-02-01T17:54:30.588Z,98885
2018-02-01T17:57:00.470Z,98889
2018-02-01T17:59:30.300Z,98894
2018-02-01T18:02:00.469Z,98893
2018-02-01T18:04:30.599Z,98900
2018-02-01T18:07:00.577Z,98891
2018-02-01T18:09:30.430Z,98895
2018-02-01T18:12:00.551Z,98890
2018-02-01T18:14:30.508Z,98890
2018-02-01T18:17:00.434Z,98888
2018-02-01T18:19:31.275Z,98874
2018-02-01T18:22:01.942Z,98871
2018-02-01T18:24:31.761Z,98878
2018-02-01T18:27:01.709Z,98873
2018-02-01T18:29:31.641Z,98883
2018-02-01T18:32:01.523Z,98888
2018-02-01T18:34:31.409Z,98882
2018-02-01T18:37:02.048Z,98879
2018-02-01T18:39:31.972Z,98882
2018-02-01T18:42:01.834Z,98889
2018-02-01T18:44:31.760Z,98892
2018-02-01T18:47:02.426Z,98892
2018-02-01T18:49:32.353Z,98885
2018-02-01T18:52:02.222Z,98897
2018-02-01T18:54:32.082Z,98907
2018-02-01T18:57:01.908Z,98886
2018-02-01T18:59:31.865Z,98900
2018-02-01T19:02:01.749Z,98902
2018-02-01T19:04:31.651Z,98908
2018-02-01T19:07:02.455Z,98916
2018-02-01T19:09:32.331Z,98915
2018-02-01T19:12:02.184Z,98905
2018-02-01T19:14:32.082Z,98900
2018-02-01T19:17:02.226Z,98902
2018-02-01T19:19:32.120Z,98909
2018-02-01T19:22:02.039Z,98902
2018-02-01T19:24:32.084Z,98904
2018-02-01T19:27:02.065Z,98899
2018-02-01T19:29:31.974Z,98902
2018-02-01T19:32:01.857Z,98891
2018-02-01T19:34:31.809Z,98892
2018-02-01T19:37:01.872Z,98899
2018-02-01T19:39:32.065Z,98907
2018-02-01T19:42:01.972Z,98898
2018-02-01T19:44:31.854Z,98905
2018-02-01T19:47:01.825Z,98908
2018-02-01T19:49:32.561Z,98904
2018-02-01T19:52:02.403Z,98910
2018-02-01T19:54:32.286Z,98920
2018-02-01T19:57:02.254Z,98918
2018-02-01T19:59:32.278Z,98922
2018-02-01T20:02:02.272Z,98913
2018-02-01T20:04:32.212Z,98916
2018-02-01T20:07:02.594Z,98917
2018-02-01T20:09:32.536Z,98917
2018-02-01T20:12:02.530Z,98908
2018-02-01T20:14:33.276Z,98908
2018-02-01T20:17:04.094Z,98897
2018-02-01T20:19:34.013Z,98904
2018-02-01T20:22:03.976Z,98897
2018-02-01T20:24:34.342Z,98891
2018-02-01T20:27:04.183Z,98896
2018-02-01T20:29:34.062Z,98907
2018-02-01T20:32:04.981Z,98914
2018-02-01T20:34:34.925Z,98916
2018-02-01T20:37:06.462Z,98912
2018-02-01T20:39:36.416Z,98922
2018-02-01T20:42:06.296Z,98914
2018-02-01T20:44:36.931Z,98910
2018-02-01T20:47:06.858Z,98921
2018-02-01T20:49:36.768Z,98911
2018-02-01T20:52:06.653Z,98912
2018-02-01T20:54:36.523Z,98919
2018-02-01T20:57:06.511Z,98923
2018-02-01T20:59:36.404Z,98914
2018-02-01T21:02:06.309Z,98912
2018-02-01T21:04:37.768Z,98920
2018-02-01T21:07:07.727Z,98923
2018-02-01T21:09:37.686Z,98928
2018-02-01T21:12:12.237Z,98922
2018-02-01T21:14:42.193Z,98926
2018-02-01T21:17:13.029Z,98945
2018-02-01T21:19:42.932Z,98932
2018-02-01T21:22:12.937Z,98925
2018-02-01T21:24:42.824Z,98926
2018-02-01T21:27:12.717Z,98922
2018-02-01T21:29:42.570Z,98918
2018-02-01T21:32:12.445Z,98930
2018-02-01T21:34:42.268Z,98913
2018-02-01T21:37:12.137Z,98932
2018-02-01T21:39:41.996Z,98921
2018-02-01T21:42:11.857Z,98914
2018-02-01T21:44:41.749Z,98925
2018-02-01T21:47:11.812Z,98931
2018-02-01T21:49:41.678Z,98925
2018-02-01T21:52:11.510Z,98910
2018-02-01T21:54:41.502Z,98922
2018-02-01T21:57:11.404Z,98909
2018-02-01T21:59:41.289Z,98910
2018-02-01T22:02:11.171Z,98907
2018-02-01T22:04:41.083Z,98913
2018-02-01T22:07:11.803Z,98912
2018-02-01T22:09:41.728Z,98913
2018-02-01T22:12:11.689Z,98914
2018-02-01T22:14:41.534Z,98910
2018-02-01T22:17:12.657Z,98917
2018-02-01T22:22:49.917Z,98911
2018-02-01T22:25:19.906Z,98909
2018-02-01T22:27:53.323Z,98913
2018-02-01T22:30:26.591Z,98914
2018-02-01T22:32:57.078Z,98915
2018-02-01T22:35:26.941Z,98915
2018-02-01T22:37:57.863Z,98914
2018-02-01T22:40:28.908Z,98909
2018-02-01T22:42:58.843Z,98919
2018-02-01T22:45:28.823Z,98910
2018-02-01T22:47:58.724Z,98920
2018-02-01T22:50:28.592Z,98908
2018-02-01T22:52:58.482Z,98909
2018-02-01T22:55:28.359Z,98917
2018-02-01T22:57:58.245Z,98918
2018-02-01T23:00:28.142Z,98914
2018-02-01T23:02:58.096Z,98911
2018-02-01T23:05:28.041Z,98925
2018-02-01T23:07:57.928Z,98919
2018-02-01T23:10:27.812Z,98923
2018-02-01T23:12:57.760Z,98917
2018-02-01T23:15:27.775Z,98922
2018-02-01T23:17:57.724Z,98921
2018-02-01T23:20:27.598Z,98918
2018-02-01T23:22:57.550Z,98924
2018-02-01T23:25:27.415Z,98922
2018-02-01T23:27:57.632Z,98926
2018-02-01T23:30:27.530Z,98922
2018-02-01T23:32:57.633Z,98927
2018-02-01T23:35:28.491Z,98928
2018-02-01T23:37:58.356Z,98925
2018-02-01T23:40:28.242Z,98777
2018-02-01T23:42:58.179Z,98928
2018-02-01T23:45:28.218Z,98927
2018-02-01T23:47:59.064Z,98918
2018-02-01T23:50:29.146Z,98922
2018-02-01T23:52:59.147Z,98909
2018-02-01T23:55:29.549Z,98921
2018-02-01T23:57:59.525Z,98917
